createdAt,value
2023-04-17T00:00:40.088Z,99376.69
2023-04-17T00:01:42.493Z,99373.22
2023-04-17T00:02:45.163Z,99374.41
2023-04-17T00:03:47.470Z,99371.22
2023-04-17T00:04:49.753Z,99376.59
2023-04-17T00:05:54.153Z,99373.75
2023-04-17T00:06:56.981Z,99371.53
2023-04-17T00:08:00.070Z,99380.12
2023-04-17T00:09:02.129Z,99374.06
2023-04-17T00:10:08.245Z,99371.00
2023-04-17T00:11:10.123Z,99373.84
2023-04-17T00:12:12.247Z,99375.13
2023-04-17T00:13:14.234Z,99375.19
2023-04-17T00:14:16.118Z,99371.06
2023-04-17T00:15:17.961Z,99379.47
2023-04-17T00:16:19.912Z,99378.38
2023-04-17T00:17:22.108Z,99369.31
2023-04-17T00:18:23.995Z,99376.06
2023-04-17T00:19:25.827Z,99372.88
2023-04-17T00:20:27.663Z,99372.88
2023-04-17T00:21:32.457Z,99372.41
2023-04-17T00:22:34.693Z,99362.44
2023-04-17T00:23:36.506Z,99366.19
2023-04-17T00:24:38.323Z,99364.22
2023-04-17T00:25:40.249Z,99365.19
2023-04-17T00:26:42.109Z,99365.47
2023-04-17T00:27:44.344Z,99359.94
2023-04-17T00:28:47.538Z,99363.41
2023-04-17T00:29:49.357Z,99365.06
2023-04-17T00:30:51.279Z,99367.09
2023-04-17T00:31:53.266Z,99365.19
2023-04-17T00:32:55.472Z,99367.72
2023-04-17T00:33:58.860Z,99371.06
2023-04-17T00:35:00.992Z,99366.28
2023-04-17T00:36:02.857Z,99363.50
2023-04-17T00:37:04.742Z,99362.06
2023-04-17T00:38:09.197Z,99370.25
2023-04-17T00:39:11.309Z,99363.34
2023-04-17T00:40:13.617Z,99367.94
2023-04-17T00:41:15.461Z,99365.97
2023-04-17T00:42:17.549Z,99364.84
2023-04-17T00:43:19.905Z,99371.78
2023-04-17T00:44:21.770Z,99367.00
2023-04-17T00:45:23.657Z,99368.25
2023-04-17T00:46:25.717Z,99370.34
2023-04-17T00:47:27.868Z,99365.00
2023-04-17T00:48:30.141Z,99365.56
2023-04-17T00:49:32.761Z,99365.97
2023-04-17T00:50:35.092Z,99368.03
2023-04-17T00:51:37.085Z,99369.44
2023-04-17T00:52:39.785Z,99366.59
2023-04-17T00:53:42.296Z,99362.78
2023-04-17T00:54:44.391Z,99376.59
2023-04-17T00:55:48.261Z,99374.69
2023-04-17T00:56:51.746Z,99375.81
2023-04-17T00:57:53.857Z,99370.44
2023-04-17T00:58:57.759Z,99372.88
2023-04-17T00:59:59.895Z,99370.41
2023-04-17T01:01:01.970Z,99367.16
2023-04-17T01:02:04.401Z,99370.72
2023-04-17T01:03:06.616Z,99366.19
2023-04-17T01:04:10.365Z,99375.50
2023-04-17T01:05:12.485Z,99369.13
2023-04-17T01:06:14.748Z,99363.25
2023-04-17T01:07:17.210Z,99363.41
2023-04-17T01:08:19.532Z,99365.62
2023-04-17T01:09:22.203Z,99366.91
2023-04-17T01:10:24.256Z,99369.28
2023-04-17T01:11:26.131Z,99367.38
2023-04-17T01:12:28.183Z,99368.03
2023-04-17T01:13:30.075Z,99371.06
2023-04-17T01:14:32.244Z,99363.19
2023-04-17T01:15:35.016Z,99367.97
2023-04-17T01:16:40.267Z,99363.19
2023-04-17T01:17:42.483Z,99373.03
2023-04-17T01:18:44.744Z,99368.16
2023-04-17T01:19:47.995Z,99364.47
2023-04-17T01:20:49.932Z,99367.87
2023-04-17T01:21:52.020Z,99364.12
2023-04-17T01:22:54.147Z,99366.28
2023-04-17T01:23:56.650Z,99358.75
2023-04-17T01:24:59.911Z,99370.41
2023-04-17T01:26:03.076Z,99358.34
2023-04-17T01:27:07.017Z,99367.87
2023-04-17T01:28:09.221Z,99367.97
2023-04-17T01:29:12.715Z,99363.59
2023-04-17T01:30:15.479Z,99360.97
2023-04-17T01:31:17.986Z,99359.72
2023-04-17T01:32:20.265Z,99353.84
2023-04-17T01:33:22.268Z,99362.34
2023-04-17T01:34:24.303Z,99357.47
2023-04-17T01:35:26.570Z,99354.78
2023-04-17T01:36:29.423Z,99358.06
2023-04-17T01:37:31.385Z,99358.94
2023-04-17T01:38:33.227Z,99356.03
2023-04-17T01:39:36.447Z,99360.03
2023-04-17T01:40:38.672Z,99355.50
2023-04-17T01:41:40.587Z,99352.87
2023-04-17T01:42:42.458Z,99345.09
2023-04-17T01:43:46.494Z,99347.66
2023-04-17T01:44:48.361Z,99339.84
2023-04-17T01:45:50.565Z,99352.87
2023-04-17T01:46:52.581Z,99344.47
2023-04-17T01:47:54.576Z,99350.72
2023-04-17T01:48:56.854Z,99341.66
2023-04-17T01:49:59.022Z,99350.34
2023-04-17T01:51:01.424Z,99353.19
2023-04-17T01:52:03.372Z,99346.91
2023-04-17T01:53:05.233Z,99351.97
2023-04-17T01:54:08.163Z,99354.84
2023-04-17T01:55:10.229Z,99355.97
2023-04-17T01:56:13.795Z,99352.06
2023-04-17T01:57:16.894Z,99356.38
2023-04-17T01:58:18.816Z,99349.12
2023-04-17T01:59:20.995Z,99352.69
2023-04-17T02:00:23.639Z,99355.25
2023-04-17T02:01:26.063Z,99350.25
2023-04-17T02:02:28.073Z,99341.91
2023-04-17T02:03:31.416Z,99352.81
2023-04-17T02:04:33.602Z,99354.47
2023-04-17T02:05:35.950Z,99359.63
2023-04-17T02:06:40.670Z,99352.69
2023-04-17T02:07:42.601Z,99349.06
2023-04-17T02:08:44.523Z,99354.28
2023-04-17T02:09:46.401Z,99351.09
2023-04-17T02:10:48.278Z,99353.06
2023-04-17T02:11:50.505Z,99352.25
2023-04-17T02:12:53.962Z,99356.59
2023-04-17T02:13:56.013Z,99353.91
2023-04-17T02:15:01.178Z,99355.72
2023-04-17T02:16:03.472Z,99357.09
2023-04-17T02:17:05.906Z,99349.97
2023-04-17T02:18:08.163Z,99361.37
2023-04-17T02:19:10.421Z,99358.44
2023-04-17T02:20:12.772Z,99362.91
2023-04-17T02:21:14.659Z,99362.81
2023-04-17T02:22:18.486Z,99365.34
2023-04-17T02:23:20.343Z,99356.34
2023-04-17T02:24:22.212Z,99361.13
2023-04-17T02:25:24.107Z,99358.59
2023-04-17T02:26:28.203Z,99361.69
2023-04-17T02:27:30.428Z,99364.09
2023-04-17T02:28:32.391Z,99360.34
2023-04-17T02:29:36.954Z,99365.44
2023-04-17T02:30:38.932Z,99365.91
2023-04-17T02:31:43.649Z,99360.34
2023-04-17T02:32:46.565Z,99362.03
2023-04-17T02:33:48.479Z,99362.25
2023-04-17T02:34:51.508Z,99357.72
2023-04-17T02:35:53.458Z,99364.31
2023-04-17T02:36:57.397Z,99358.19
2023-04-17T02:38:00.225Z,99365.66
2023-04-17T02:39:02.481Z,99364.97
2023-04-17T02:40:07.329Z,99365.34
2023-04-17T02:41:09.188Z,99360.34
2023-04-17T02:42:13.092Z,99356.66
2023-04-17T02:43:17.230Z,99353.59
2023-04-17T02:44:19.109Z,99354.28
2023-04-17T02:45:21.173Z,99351.41
2023-04-17T02:46:23.147Z,99359.38
2023-04-17T02:47:25.737Z,99350.63
2023-04-17T02:48:27.964Z,99347.66
2023-04-17T02:49:30.189Z,99351.34
2023-04-17T02:50:32.801Z,99353.50
2023-04-17T02:51:35.469Z,99353.66
2023-04-17T02:52:37.460Z,99357.94
2023-04-17T02:53:39.611Z,99354.28
2023-04-17T02:54:41.459Z,99359.94
2023-04-17T02:55:43.653Z,99348.88
2023-04-17T02:56:45.692Z,99349.50
2023-04-17T02:57:47.635Z,99349.53
2023-04-17T02:58:49.834Z,99354.78
2023-04-17T02:59:52.227Z,99350.16
2023-04-17T03:01:03.936Z,99354.22
2023-04-17T03:02:06.006Z,99349.53
2023-04-17T03:03:08.292Z,99355.88
2023-04-17T03:04:11.106Z,99348.25
2023-04-17T03:05:15.036Z,99354.59
2023-04-17T03:06:17.008Z,99354.97
2023-04-17T03:07:20.522Z,99360.28
2023-04-17T03:08:23.454Z,99362.03
2023-04-17T03:09:26.119Z,99366.75
2023-04-17T03:10:28.089Z,99361.66
2023-04-17T03:11:29.945Z,99357.91
2023-04-17T03:12:31.857Z,99362.47
2023-04-17T03:13:36.788Z,99360.94
2023-04-17T03:14:38.973Z,99367.13
2023-04-17T03:15:41.317Z,99363.38
2023-04-17T03:16:43.218Z,99360.53
2023-04-17T03:17:45.606Z,99362.03
2023-04-17T03:18:47.520Z,99356.19
2023-04-17T03:19:49.727Z,99360.47
2023-04-17T03:20:52.843Z,99361.91
2023-04-17T03:21:54.921Z,99358.09
2023-04-17T03:22:56.765Z,99366.34
2023-04-17T03:23:58.716Z,99360.69
2023-04-17T03:25:00.923Z,99351.88
2023-04-17T03:26:04.231Z,99355.13
2023-04-17T03:27:06.589Z,99355.69
2023-04-17T03:28:10.528Z,99362.28
2023-04-17T03:29:12.557Z,99359.28
2023-04-17T03:30:15.291Z,99356.00
2023-04-17T03:31:18.555Z,99355.38
2023-04-17T03:32:21.327Z,99360.19
2023-04-17T03:33:24.267Z,99365.53
2023-04-17T03:34:26.320Z,99364.19
2023-04-17T03:35:28.752Z,99356.69
2023-04-17T03:36:30.933Z,99366.16
2023-04-17T03:37:32.855Z,99362.19
2023-04-17T03:38:37.973Z,99367.72
2023-04-17T03:39:40.607Z,99370.47
2023-04-17T03:40:42.857Z,99366.47
2023-04-17T03:41:45.229Z,99368.22
2023-04-17T03:42:47.164Z,99371.13
2023-04-17T03:43:49.110Z,99371.34
2023-04-17T03:44:50.991Z,99376.19
2023-04-17T03:45:53.835Z,99371.53
2023-04-17T03:46:55.930Z,99369.00
2023-04-17T03:47:57.996Z,99375.44
2023-04-17T03:49:00.319Z,99367.87
2023-04-17T03:50:02.863Z,99371.06
2023-04-17T03:51:06.433Z,99374.06
2023-04-17T03:52:08.415Z,99372.38
2023-04-17T03:53:10.496Z,99376.59
2023-04-17T03:54:13.058Z,99372.31
2023-04-17T03:55:16.956Z,99368.72
2023-04-17T03:56:19.520Z,99363.88
2023-04-17T03:57:21.454Z,99373.72
2023-04-17T03:58:23.800Z,99371.34
2023-04-17T03:59:25.773Z,99372.81
2023-04-17T04:00:28.608Z,99381.69
2023-04-17T04:01:32.782Z,99374.72
2023-04-17T04:02:35.546Z,99377.00
2023-04-17T04:03:38.086Z,99378.97
2023-04-17T04:04:40.815Z,99385.22
2023-04-17T04:05:43.629Z,99380.28
2023-04-17T04:06:47.246Z,99377.91
2023-04-17T04:07:49.346Z,99380.16
2023-04-17T04:08:53.335Z,99377.66
2023-04-17T04:09:55.934Z,99379.62
2023-04-17T04:10:58.232Z,99371.53
2023-04-17T04:12:00.715Z,99388.72
2023-04-17T04:13:02.812Z,99379.41
2023-04-17T04:14:04.802Z,99384.88
2023-04-17T04:15:08.268Z,99378.72
2023-04-17T04:16:10.746Z,99387.53
2023-04-17T04:17:13.746Z,99385.28
2023-04-17T04:18:17.406Z,99383.22
2023-04-17T04:19:19.584Z,99389.88
2023-04-17T04:20:24.884Z,99382.72
2023-04-17T04:21:28.217Z,99383.47
2023-04-17T04:22:30.806Z,99391.37
2023-04-17T04:23:33.783Z,99389.03
2023-04-17T04:24:36.470Z,99392.22
2023-04-17T04:25:41.729Z,99397.94
2023-04-17T04:26:47.250Z,99391.56
2023-04-17T04:27:49.897Z,99387.72
2023-04-17T04:28:53.621Z,99395.78
2023-04-17T04:29:58.844Z,99395.88
2023-04-17T04:31:02.803Z,99390.16
2023-04-17T04:32:09.698Z,99404.22
2023-04-17T04:33:13.409Z,99400.78
2023-04-17T04:34:16.924Z,99395.31
2023-04-17T04:35:19.085Z,99393.19
2023-04-17T04:36:21.653Z,99395.00
2023-04-17T04:37:29.871Z,99398.31
2023-04-17T04:38:33.261Z,99399.31
2023-04-17T04:39:37.989Z,99403.19
2023-04-17T04:40:43.824Z,99399.81
2023-04-17T04:41:52.364Z,99400.47
2023-04-17T04:42:55.972Z,99404.56
2023-04-17T04:43:58.361Z,99404.94
2023-04-17T04:45:00.443Z,99403.47
2023-04-17T04:46:03.802Z,99405.03
2023-04-17T04:47:06.409Z,99408.13
2023-04-17T04:48:08.783Z,99407.63
2023-04-17T04:49:11.545Z,99413.78
2023-04-17T04:50:13.658Z,99412.53
2023-04-17T04:51:16.091Z,99414.28
2023-04-17T04:52:19.174Z,99419.94
2023-04-17T04:53:21.685Z,99415.75
2023-04-17T04:54:24.809Z,99414.03
2023-04-17T04:55:26.810Z,99416.72
2023-04-17T04:56:30.470Z,99412.38
2023-04-17T04:57:34.452Z,99423.97
2023-04-17T04:58:38.573Z,99422.97
2023-04-17T04:59:40.931Z,99422.56
2023-04-17T05:00:47.489Z,99421.34
2023-04-17T05:01:50.596Z,99426.59
2023-04-17T05:02:53.196Z,99425.50
2023-04-17T05:03:58.127Z,99420.69
2023-04-17T05:05:03.147Z,99419.91
2023-04-17T05:06:06.628Z,99421.81
2023-04-17T05:07:09.061Z,99424.44
2023-04-17T05:08:12.248Z,99425.81
2023-04-17T05:09:16.705Z,99421.72
2023-04-17T05:10:19.594Z,99421.16
2023-04-17T05:11:22.944Z,99430.91
2023-04-17T05:12:24.874Z,99425.38
2023-04-17T05:13:26.709Z,99420.91
2023-04-17T05:14:29.395Z,99424.72
2023-04-17T05:15:31.876Z,99432.50
2023-04-17T05:16:33.963Z,99429.66
2023-04-17T05:17:36.530Z,99429.03
2023-04-17T05:18:38.732Z,99433.62
2023-04-17T05:19:42.559Z,99434.75
2023-04-17T05:20:45.049Z,99435.00
2023-04-17T05:21:47.219Z,99436.16
2023-04-17T05:22:50.608Z,99429.56
2023-04-17T05:23:52.530Z,99433.62
2023-04-17T05:24:54.467Z,99435.22
2023-04-17T05:25:56.711Z,99429.97
2023-04-17T05:26:59.172Z,99430.91
2023-04-17T05:28:01.068Z,99430.81
2023-04-17T05:29:02.998Z,99434.09
2023-04-17T05:30:05.751Z,99435.59
2023-04-17T05:31:08.738Z,99446.69
2023-04-17T05:32:11.212Z,99440.91
2023-04-17T05:33:13.780Z,99435.00
2023-04-17T05:34:16.550Z,99435.72
2023-04-17T05:35:19.103Z,99431.75
2023-04-17T05:36:23.781Z,99430.69
2023-04-17T05:37:27.488Z,99435.69
2023-04-17T05:38:30.117Z,99433.53
2023-04-17T05:39:32.177Z,99434.97
2023-04-17T05:40:34.597Z,99440.72
2023-04-17T05:41:36.771Z,99431.97
2023-04-17T05:42:38.786Z,99431.25
2023-04-17T05:43:42.698Z,99433.31
2023-04-17T05:44:44.660Z,99434.44
2023-04-17T05:45:47.673Z,99424.44
2023-04-17T05:46:49.868Z,99430.69
2023-04-17T05:47:51.787Z,99437.06
2023-04-17T05:48:53.669Z,99432.88
2023-04-17T05:49:58.229Z,99439.28
2023-04-17T05:51:02.170Z,99444.16
2023-04-17T05:52:05.062Z,99441.53
2023-04-17T05:53:08.279Z,99436.19
2023-04-17T05:54:10.786Z,99436.91
2023-04-17T05:55:15.548Z,99438.41
2023-04-17T05:56:18.024Z,99435.31
2023-04-17T05:57:20.336Z,99444.25
2023-04-17T05:58:24.497Z,99441.06
2023-04-17T05:59:27.934Z,99450.28
2023-04-17T06:00:31.295Z,99442.63
2023-04-17T06:01:35.974Z,99459.13
2023-04-17T06:02:39.136Z,99450.25
2023-04-17T06:03:41.435Z,99443.66
2023-04-17T06:04:45.049Z,99447.03
2023-04-17T06:05:47.455Z,99447.47
2023-04-17T06:06:49.711Z,99448.31
2023-04-17T06:07:51.921Z,99442.22
2023-04-17T06:08:57.074Z,99441.28
2023-04-17T06:09:59.453Z,99443.66
2023-04-17T06:11:01.960Z,99437.94
2023-04-17T06:12:05.474Z,99439.25
2023-04-17T06:13:07.950Z,99438.41
2023-04-17T06:14:09.932Z,99446.44
2023-04-17T06:15:12.282Z,99440.41
2023-04-17T06:16:14.439Z,99444.37
2023-04-17T06:17:16.844Z,99447.81
2023-04-17T06:18:18.827Z,99445.34
2023-04-17T06:19:22.375Z,99448.28
2023-04-17T06:20:24.542Z,99444.37
2023-04-17T06:21:26.864Z,99445.09
2023-04-17T06:22:29.105Z,99453.84
2023-04-17T06:23:31.205Z,99451.69
2023-04-17T06:24:33.239Z,99451.22
2023-04-17T06:25:35.232Z,99460.47
2023-04-17T06:26:37.149Z,99448.91
2023-04-17T06:27:39.485Z,99456.50
2023-04-17T06:28:41.402Z,99452.03
2023-04-17T06:29:43.910Z,99454.56
2023-04-17T06:30:46.098Z,99459.84
2023-04-17T06:31:48.061Z,99459.69
2023-04-17T06:32:50.768Z,99462.84
2023-04-17T06:33:53.857Z,99457.19
2023-04-17T06:34:59.559Z,99461.78
2023-04-17T06:36:04.048Z,99454.88
2023-04-17T06:37:07.261Z,99462.19
2023-04-17T06:38:12.963Z,99468.06
2023-04-17T06:39:15.037Z,99462.53
2023-04-17T06:40:17.516Z,99470.78
2023-04-17T06:41:19.376Z,99458.69
2023-04-17T06:42:21.308Z,99463.75
2023-04-17T06:43:28.232Z,99461.25
2023-04-17T06:44:30.125Z,99466.78
2023-04-17T06:45:35.205Z,99458.56
2023-04-17T06:46:41.379Z,99460.56
2023-04-17T06:47:46.507Z,99463.75
2023-04-17T06:48:52.328Z,99474.25
2023-04-17T06:49:54.220Z,99472.81
2023-04-17T06:50:56.280Z,99465.94
2023-04-17T06:51:59.325Z,99466.44
2023-04-17T06:53:01.177Z,99471.81
2023-04-17T06:54:03.321Z,99475.13
2023-04-17T06:55:05.863Z,99471.69
2023-04-17T06:56:07.798Z,99475.19
2023-04-17T06:57:10.750Z,99474.00
2023-04-17T06:58:13.471Z,99473.63
2023-04-17T06:59:15.624Z,99474.19
2023-04-17T07:00:17.988Z,99478.44
2023-04-17T07:01:20.891Z,99475.41
2023-04-17T07:02:23.104Z,99478.75
2023-04-17T07:03:25.537Z,99477.94
2023-04-17T07:04:27.843Z,99473.56
2023-04-17T07:05:29.772Z,99477.78
2023-04-17T07:06:33.844Z,99478.25
2023-04-17T07:07:36.466Z,99476.25
2023-04-17T07:08:39.103Z,99475.97
2023-04-17T07:09:43.000Z,99478.09
2023-04-17T07:10:44.881Z,99477.13
2023-04-17T07:11:46.762Z,99476.38
2023-04-17T07:12:48.637Z,99479.66
2023-04-17T07:13:50.595Z,99477.16
2023-04-17T07:14:52.982Z,99486.72
2023-04-17T07:15:55.612Z,99475.69
2023-04-17T07:16:57.611Z,99484.75
2023-04-17T07:17:59.568Z,99470.78
2023-04-17T07:19:01.453Z,99479.00
2023-04-17T07:20:07.234Z,99479.00
2023-04-17T07:21:09.119Z,99482.97
2023-04-17T07:22:11.119Z,99480.88
2023-04-17T07:23:13.007Z,99484.59
2023-04-17T07:24:14.878Z,99487.50
2023-04-17T07:25:17.184Z,99480.63
2023-04-17T07:26:19.042Z,99488.03
2023-04-17T07:27:21.670Z,99482.19
2023-04-17T07:28:25.115Z,99490.13
2023-04-17T07:29:27.089Z,99484.31
2023-04-17T07:30:29.320Z,99484.03
2023-04-17T07:31:31.276Z,99483.75
2023-04-17T07:32:33.251Z,99486.41
2023-04-17T07:33:40.458Z,99484.59
2023-04-17T07:34:42.981Z,99488.03
2023-04-17T07:35:45.259Z,99480.09
2023-04-17T07:36:47.337Z,99484.59
2023-04-17T07:37:49.413Z,99484.59
2023-04-17T07:38:51.325Z,99492.78
2023-04-17T07:39:53.667Z,99480.59
2023-04-17T07:40:55.916Z,99500.16
2023-04-17T07:41:57.953Z,99491.69
2023-04-17T07:42:59.820Z,99497.22
2023-04-17T07:44:03.583Z,99491.97
2023-04-17T07:45:06.297Z,99499.63
2023-04-17T07:46:08.457Z,99491.47
2023-04-17T07:47:10.505Z,99494.38
2023-04-17T07:48:12.494Z,99500.72
2023-04-17T07:49:14.644Z,99503.91
2023-04-17T07:50:16.731Z,99497.50
2023-04-17T07:51:18.945Z,99499.09
2023-04-17T07:52:20.857Z,99508.84
2023-04-17T07:53:25.662Z,99509.38
2023-04-17T07:54:27.648Z,99513.31
2023-04-17T07:55:29.583Z,99510.66
2023-04-17T07:56:34.512Z,99509.53
2023-04-17T07:57:36.507Z,99512.91
2023-04-17T07:58:38.389Z,99510.16
2023-04-17T07:59:40.726Z,99509.88
2023-04-17T08:00:43.551Z,99507.69
2023-04-17T08:01:47.889Z,99516.06
2023-04-17T08:02:50.045Z,99501.19
2023-04-17T08:03:52.960Z,99510.12
2023-04-17T08:04:55.548Z,99510.12
2023-04-17T08:05:58.750Z,99504.59
2023-04-17T08:07:01.089Z,99506.47
2023-04-17T08:08:03.017Z,99505.94
2023-04-17T08:09:04.896Z,99512.06
2023-04-17T08:10:07.186Z,99503.44
2023-04-17T08:11:09.047Z,99512.31
2023-04-17T08:12:11.242Z,99510.94
2023-04-17T08:13:13.148Z,99505.25
2023-04-17T08:14:16.302Z,99508.19
2023-04-17T08:15:18.715Z,99502.53
2023-04-17T08:16:20.609Z,99509.50
2023-04-17T08:17:23.612Z,99510.22
2023-04-17T08:18:25.750Z,99506.81
2023-04-17T08:19:27.677Z,99510.28
2023-04-17T08:20:29.549Z,99517.91
2023-04-17T08:21:31.698Z,99511.09
2023-04-17T08:22:39.233Z,99516.38
2023-04-17T08:23:41.850Z,99513.41
2023-04-17T08:24:43.724Z,99514.94
2023-04-17T08:25:46.154Z,99513.06
2023-04-17T08:26:48.051Z,99512.81
2023-04-17T08:27:50.581Z,99509.66
2023-04-17T08:28:53.812Z,99503.59
2023-04-17T08:29:56.559Z,99514.91
2023-04-17T08:30:58.581Z,99502.53
2023-04-17T08:33:09.160Z,99496.03
2023-04-17T08:34:14.833Z,99506.09
2023-04-17T08:35:17.563Z,99503.84
2023-04-17T08:36:19.430Z,99502.59
2023-04-17T08:37:21.520Z,99505.09
2023-04-17T08:38:23.714Z,99506.72
2023-04-17T08:39:27.146Z,99497.87
2023-04-17T08:40:29.038Z,99495.47
2023-04-17T08:41:38.095Z,99513.69
2023-04-17T08:42:42.064Z,99505.22
2023-04-17T08:43:49.176Z,99497.22
2023-04-17T08:44:51.256Z,99500.06
2023-04-17T08:45:56.771Z,99509.34
2023-04-17T08:46:58.983Z,99503.94
2023-04-17T08:48:01.079Z,99505.37
2023-04-17T08:49:03.625Z,99503.06
2023-04-17T08:50:15.006Z,99504.28
2023-04-17T08:51:17.017Z,99507.78
2023-04-17T08:52:19.149Z,99499.06
2023-04-17T08:53:21.708Z,99492.75
2023-04-17T08:54:23.919Z,99500.31
2023-04-17T08:55:29.028Z,99495.97
2023-04-17T08:56:31.004Z,99508.41
2023-04-17T08:57:32.848Z,99507.91
2023-04-17T08:58:35.301Z,99510.91
2023-04-17T08:59:37.526Z,99501.09
2023-04-17T09:00:41.383Z,99504.56
2023-04-17T09:02:03.462Z,99504.03
2023-04-17T09:03:08.208Z,99500.75
2023-04-17T09:04:10.739Z,99508.56
2023-04-17T09:05:21.811Z,99505.03
2023-04-17T09:06:23.665Z,99509.16
2023-04-17T09:07:32.116Z,99499.94
2023-04-17T09:08:33.974Z,99506.47
2023-04-17T09:09:50.716Z,99503.25
2023-04-17T09:10:54.926Z,99506.63
2023-04-17T09:12:10.526Z,99503.78
2023-04-17T09:13:16.801Z,99507.06
2023-04-17T09:14:37.058Z,99501.19
2023-04-17T09:15:39.037Z,99511.09
2023-04-17T09:16:54.620Z,99499.13
2023-04-17T09:17:56.729Z,99501.81
2023-04-17T09:19:07.859Z,99501.72
2023-04-17T09:20:12.337Z,99506.28
2023-04-17T09:21:16.819Z,99514.75
2023-04-17T09:22:21.854Z,99512.03
2023-04-17T09:23:23.816Z,99504.13
2023-04-17T09:24:35.466Z,99506.78
2023-04-17T09:25:37.422Z,99503.50
2023-04-17T09:26:39.438Z,99511.16
2023-04-17T09:27:41.608Z,99499.72
2023-04-17T09:29:03.790Z,99506.50
2023-04-17T09:30:07.083Z,99502.25
2023-04-17T09:31:18.454Z,99501.28
2023-04-17T09:32:20.347Z,99504.22
2023-04-17T09:33:22.520Z,99504.94
2023-04-17T09:34:24.475Z,99508.94
2023-04-17T09:35:26.573Z,99508.75
2023-04-17T09:36:30.631Z,99511.81
2023-04-17T09:37:51.267Z,99505.09
2023-04-17T09:38:54.381Z,99515.84
2023-04-17T09:39:57.755Z,99513.78
2023-04-17T09:40:59.736Z,99511.09
2023-04-17T09:42:06.460Z,99512.75
2023-04-17T09:43:10.389Z,99510.31
2023-04-17T09:44:25.705Z,99518.78
2023-04-17T09:45:33.537Z,99512.69
2023-04-17T09:46:39.616Z,99515.66
2023-04-17T09:47:44.677Z,99514.34
2023-04-17T09:48:47.740Z,99510.69
2023-04-17T09:49:55.714Z,99512.03
2023-04-17T09:50:57.780Z,99511.75
2023-04-17T09:52:00.153Z,99511.19
2023-04-17T09:53:04.301Z,99510.12
2023-04-17T09:54:07.128Z,99509.09
2023-04-17T09:55:11.053Z,99504.09
2023-04-17T09:56:13.689Z,99509.06
2023-04-17T09:57:15.827Z,99510.41
2023-04-17T09:58:18.363Z,99509.03
2023-04-17T09:59:20.559Z,99506.41
2023-04-17T10:00:27.078Z,99509.31
2023-04-17T10:01:33.986Z,99506.16
2023-04-17T10:02:37.041Z,99509.09
2023-04-17T10:03:40.245Z,99507.00
2023-04-17T10:04:44.076Z,99506.19
2023-04-17T10:05:46.262Z,99503.53
2023-04-17T10:06:49.866Z,99497.44
2023-04-17T10:07:51.700Z,99504.53
2023-04-17T10:08:54.584Z,99504.28
2023-04-17T10:09:56.599Z,99501.62
2023-04-17T10:11:06.425Z,99503.50
2023-04-17T10:12:15.047Z,99503.75
2023-04-17T10:13:17.791Z,99503.19
2023-04-17T10:14:32.680Z,99491.59
2023-04-17T10:15:35.518Z,99500.06
2023-04-17T10:16:38.650Z,99497.13
2023-04-17T10:17:41.011Z,99497.91
2023-04-17T10:18:43.017Z,99488.38
2023-04-17T10:19:44.860Z,99497.28
2023-04-17T10:20:48.457Z,99492.03
2023-04-17T10:22:18.409Z,99493.59
2023-04-17T10:23:34.820Z,99486.53
2023-04-17T10:24:36.743Z,99489.13
2023-04-17T10:25:38.621Z,99492.44
2023-04-17T10:26:40.543Z,99482.63
2023-04-17T10:27:45.445Z,99489.25
2023-04-17T10:28:49.335Z,99492.34
2023-04-17T10:29:58.864Z,99491.88
2023-04-17T10:31:02.048Z,99484.13
2023-04-17T10:32:10.193Z,99475.56
2023-04-17T10:33:21.898Z,99487.25
2023-04-17T10:34:37.390Z,99479.19
2023-04-17T10:35:39.390Z,99482.87
2023-04-17T10:36:41.232Z,99485.88
2023-04-17T10:37:51.956Z,99479.88
2023-04-17T10:39:13.725Z,99481.72
2023-04-17T10:40:22.247Z,99486.62
2023-04-17T10:41:24.204Z,99485.78
2023-04-17T10:42:28.770Z,99490.31
2023-04-17T10:43:31.243Z,99488.69
2023-04-17T10:44:39.833Z,99484.97
2023-04-17T10:46:14.556Z,99488.50
2023-04-17T10:47:21.574Z,99483.78
2023-04-17T10:48:29.129Z,99491.31
2023-04-17T10:49:56.450Z,99481.13
2023-04-17T10:51:00.276Z,99481.91
2023-04-17T10:52:02.194Z,99484.44
2023-04-17T10:53:04.631Z,99471.75
2023-04-17T10:54:10.134Z,99476.81
2023-04-17T10:55:20.755Z,99479.41
2023-04-17T10:56:49.328Z,99478.66
2023-04-17T10:58:01.202Z,99480.94
2023-04-17T10:59:04.054Z,99480.66
2023-04-17T11:00:12.547Z,99479.06
2023-04-17T11:01:14.615Z,99478.88
2023-04-17T11:02:17.264Z,99471.28
2023-04-17T11:03:23.040Z,99472.31
2023-04-17T11:04:29.990Z,99479.31
2023-04-17T11:05:32.665Z,99482.72
2023-04-17T11:06:40.032Z,99488.22
2023-04-17T11:07:44.342Z,99479.16
2023-04-17T11:08:47.650Z,99477.25
2023-04-17T11:09:52.254Z,99478.16
2023-04-17T11:10:56.433Z,99471.22
2023-04-17T11:12:03.486Z,99471.25
2023-04-17T11:13:06.090Z,99481.38
2023-04-17T11:14:19.410Z,99471.84
2023-04-17T11:15:31.535Z,99462.56
2023-04-17T11:16:33.676Z,99475.56
2023-04-17T11:17:38.497Z,99474.06
2023-04-17T11:18:41.489Z,99462.41
2023-04-17T11:19:45.259Z,99468.28
2023-04-17T11:20:50.018Z,99470.84
2023-04-17T11:22:01.374Z,99468.44
2023-04-17T11:23:04.574Z,99465.59
2023-04-17T11:24:06.867Z,99466.13
2023-04-17T11:25:08.936Z,99463.00
2023-04-17T11:26:15.822Z,99467.75
2023-04-17T11:27:17.716Z,99466.63
2023-04-17T11:28:19.561Z,99469.09
2023-04-17T11:29:23.058Z,99467.47
2023-04-17T11:30:37.763Z,99464.34
2023-04-17T11:31:39.933Z,99460.63
2023-04-17T11:32:45.105Z,99458.81
2023-04-17T11:33:48.419Z,99461.22
2023-04-17T11:34:51.890Z,99461.47
2023-04-17T11:35:54.750Z,99460.44
2023-04-17T11:36:58.403Z,99461.47
2023-04-17T11:38:06.975Z,99463.59
2023-04-17T11:39:09.081Z,99461.72
2023-04-17T11:40:11.488Z,99458.28
2023-04-17T11:41:13.707Z,99465.94
2023-04-17T11:42:26.589Z,99462.00
2023-04-17T11:43:30.015Z,99454.34
2023-04-17T11:44:31.896Z,99461.47
2023-04-17T11:45:35.733Z,99460.44
2023-04-17T11:46:37.765Z,99466.81
2023-04-17T11:47:40.481Z,99464.72
2023-04-17T11:48:42.433Z,99467.59
2023-04-17T11:49:44.465Z,99459.66
2023-04-17T11:50:46.672Z,99462.59
2023-04-17T11:51:48.568Z,99465.25
2023-04-17T11:52:50.502Z,99464.75
2023-04-17T11:53:52.354Z,99459.47
2023-04-17T11:54:58.322Z,99466.31
2023-04-17T11:56:20.918Z,99465.25
2023-04-17T11:57:22.626Z,99466.59
2023-04-17T11:58:24.488Z,99465.78
2023-04-17T11:59:31.302Z,99467.41
2023-04-17T12:00:34.091Z,99462.63
2023-04-17T12:01:51.987Z,99461.63
2023-04-17T12:02:53.983Z,99460.00
2023-04-17T12:03:58.192Z,99461.88
2023-04-17T12:05:17.790Z,99462.66
2023-04-17T12:06:20.366Z,99470.59
2023-04-17T12:07:26.506Z,99473.50
2023-04-17T12:08:29.683Z,99466.34
2023-04-17T12:09:32.714Z,99463.72
2023-04-17T12:10:41.974Z,99466.63
2023-04-17T12:11:43.853Z,99467.16
2023-04-17T12:12:46.107Z,99473.50
2023-04-17T12:13:48.133Z,99468.22
2023-04-17T12:14:49.998Z,99468.72
2023-04-17T12:15:52.117Z,99470.88
2023-04-17T12:16:54.053Z,99470.34
2023-04-17T12:17:56.533Z,99470.84
2023-04-17T12:18:58.781Z,99464.50
2023-04-17T12:20:04.090Z,99468.47
2023-04-17T12:21:06.204Z,99463.69
2023-04-17T12:22:08.065Z,99464.78
2023-04-17T12:23:10.530Z,99465.03
2023-04-17T12:24:12.618Z,99474.78
2023-04-17T12:25:14.760Z,99468.72
2023-04-17T12:26:16.630Z,99468.16
2023-04-17T12:27:19.976Z,99471.62
2023-04-17T12:28:22.242Z,99471.34